createdAt,value
2018-09-16T00:00:34.711Z,16.60
2018-09-16T00:03:05.061Z,12.90
2018-09-16T00:05:34.215Z,13.00
2018-09-16T00:08:09.161Z,12.63
2018-09-16T00:10:38.459Z,13.57
2018-09-16T00:13:08.017Z,12.50
2018-09-16T00:15:37.288Z,11.83
2018-09-16T00:18:06.450Z,14.03
2018-09-16T00:20:35.871Z,11.93
2018-09-16T00:23:05.236Z,12.63
2018-09-16T00:25:34.452Z,13.83
2018-09-16T00:28:03.816Z,11.97
2018-09-16T00:30:33.349Z,12.87
2018-09-16T00:33:02.669Z,14.27
2018-09-16T00:35:32.140Z,11.87
2018-09-16T00:38:01.667Z,12.67
2018-09-16T00:40:30.879Z,14.53
2018-09-16T00:43:00.017Z,14.27
2018-09-16T00:45:29.300Z,11.63
2018-09-16T00:47:58.399Z,13.17
2018-09-16T00:50:27.648Z,11.23
2018-09-16T00:52:56.853Z,12.90
2018-09-16T00:55:26.252Z,12.63
2018-09-16T00:57:55.614Z,11.47
2018-09-16T01:00:25.272Z,11.60
2018-09-16T01:02:54.632Z,11.43
2018-09-16T01:05:23.921Z,11.73
2018-09-16T01:07:53.263Z,15.57
2018-09-16T01:10:22.456Z,11.53
2018-09-16T01:12:52.135Z,10.73
2018-09-16T01:15:21.388Z,12.03
2018-09-16T01:17:50.761Z,12.27
2018-09-16T01:20:19.984Z,12.30
2018-09-16T01:22:49.891Z,12.80
2018-09-16T01:25:19.385Z,12.33
2018-09-16T01:27:48.572Z,14.50
2018-09-16T01:30:17.988Z,12.50
2018-09-16T01:32:47.294Z,12.70
2018-09-16T01:35:16.386Z,12.43
2018-09-16T01:37:51.025Z,11.60
2018-09-16T01:40:20.197Z,11.33
2018-09-16T01:42:49.339Z,12.53
2018-09-16T01:45:18.631Z,12.10
2018-09-16T01:47:47.771Z,13.57
2018-09-16T01:50:16.981Z,12.93
2018-09-16T01:52:48.762Z,11.37
2018-09-16T01:55:17.896Z,11.73
2018-09-16T01:57:47.041Z,12.10
2018-09-16T02:00:21.951Z,12.27
2018-09-16T02:02:52.135Z,13.77
2018-09-16T02:05:31.572Z,19.73
2018-09-16T02:08:00.600Z,12.97
2018-09-16T02:10:29.819Z,11.40
2018-09-16T02:12:59.126Z,15.83
2018-09-16T02:15:28.288Z,12.13
2018-09-16T02:17:57.500Z,11.70
2018-09-16T02:20:26.840Z,12.00
2018-09-16T02:22:56.096Z,10.57
2018-09-16T02:25:25.453Z,11.23
2018-09-16T02:27:54.554Z,12.60
2018-09-16T02:30:23.789Z,14.53
2018-09-16T02:32:53.109Z,13.00
2018-09-16T02:35:22.637Z,13.67
2018-09-16T02:37:51.948Z,11.00
2018-09-16T02:40:21.059Z,10.87
2018-09-16T02:42:50.530Z,11.47
2018-09-16T02:45:19.792Z,10.77
2018-09-16T02:47:50.074Z,13.40
2018-09-16T02:50:19.523Z,10.60
2018-09-16T02:52:48.987Z,11.67
2018-09-16T02:55:17.950Z,10.73
2018-09-16T02:57:47.196Z,10.70
2018-09-16T03:00:16.618Z,10.03
2018-09-16T03:02:45.856Z,11.03
2018-09-16T03:05:20.299Z,12.60
2018-09-16T03:07:49.371Z,15.70
2018-09-16T03:10:18.583Z,11.33
2018-09-16T03:12:48.126Z,12.37
2018-09-16T03:15:17.399Z,11.43
2018-09-16T03:17:46.583Z,14.17
2018-09-16T03:20:15.960Z,14.10
2018-09-16T03:22:45.269Z,12.60
2018-09-16T03:25:14.908Z,14.43
2018-09-16T03:27:44.267Z,11.77
2018-09-16T03:30:13.220Z,12.93
2018-09-16T03:32:42.418Z,11.90
2018-09-16T03:35:11.688Z,11.10
2018-09-16T03:37:41.069Z,9.90
2018-09-16T03:40:10.577Z,10.57
2018-09-16T03:42:39.932Z,11.57
2018-09-16T03:45:09.731Z,11.10
2018-09-16T03:47:39.478Z,10.47
2018-09-16T03:50:08.667Z,10.60
2018-09-16T03:52:38.149Z,10.63
2018-09-16T03:55:07.561Z,10.20
2018-09-16T03:57:36.722Z,10.97
2018-09-16T04:00:06.510Z,10.30
2018-09-16T04:02:35.852Z,10.13
2018-09-16T04:05:05.760Z,10.73
2018-09-16T04:07:35.083Z,10.27
2018-09-16T04:10:04.205Z,10.53
2018-09-16T04:12:33.547Z,10.63
2018-09-16T04:15:02.849Z,12.27
2018-09-16T04:17:32.121Z,10.53
2018-09-16T04:20:01.381Z,11.17
2018-09-16T04:22:30.488Z,9.43
2018-09-16T04:24:59.965Z,10.60
2018-09-16T04:27:29.128Z,12.17
2018-09-16T04:29:58.760Z,14.90
2018-09-16T04:32:27.879Z,11.93
2018-09-16T04:34:57.135Z,13.23
2018-09-16T04:37:26.409Z,12.27
2018-09-16T04:39:55.504Z,11.27
2018-09-16T04:42:24.923Z,13.40
2018-09-16T04:44:54.438Z,11.30
2018-09-16T04:47:23.617Z,11.30
2018-09-16T04:49:53.277Z,11.63
2018-09-16T04:52:22.460Z,11.53
2018-09-16T04:54:51.944Z,11.87
2018-09-16T04:57:21.179Z,10.40
2018-09-16T04:59:50.515Z,10.27
2018-09-16T05:02:19.764Z,12.67
2018-09-16T05:04:49.024Z,12.03
2018-09-16T05:07:18.202Z,11.10
2018-09-16T05:09:47.350Z,12.70
2018-09-16T05:12:16.868Z,17.43
2018-09-16T05:14:46.033Z,14.40
2018-09-16T05:17:15.257Z,15.63
2018-09-16T05:19:44.724Z,16.80
2018-09-16T05:22:13.881Z,14.43
2018-09-16T05:24:43.453Z,16.27
2018-09-16T05:27:12.872Z,15.17
2018-09-16T05:29:42.132Z,13.77
2018-09-16T05:32:11.444Z,13.07
2018-09-16T05:34:40.974Z,13.70
2018-09-16T05:37:10.391Z,15.70
2018-09-16T05:39:39.540Z,13.83
2018-09-16T05:42:09.104Z,12.50
2018-09-16T05:44:38.498Z,13.13
2018-09-16T05:47:08.063Z,13.27
2018-09-16T05:49:37.374Z,13.47
2018-09-16T05:52:06.554Z,14.50
2018-09-16T05:54:35.753Z,13.87
2018-09-16T05:57:04.998Z,15.73
2018-09-16T05:59:34.088Z,15.70
2018-09-16T06:02:03.516Z,16.87
2018-09-16T06:04:32.781Z,16.83
2018-09-16T06:07:02.123Z,14.83
2018-09-16T06:09:31.260Z,15.27
2018-09-16T06:12:00.469Z,14.33
2018-09-16T06:14:29.581Z,13.50
2018-09-16T06:16:58.526Z,14.30
2018-09-16T06:19:27.214Z,11.90
2018-09-16T06:21:56.451Z,13.07
2018-09-16T06:24:25.723Z,12.00
2018-09-16T06:26:55.028Z,12.60
2018-09-16T06:29:24.885Z,11.07
2018-09-16T06:31:54.097Z,12.60
2018-09-16T06:34:23.404Z,9.00
2018-09-16T06:36:52.686Z,9.23
2018-09-16T06:39:22.042Z,8.30
2018-09-16T06:41:51.708Z,7.03
2018-09-16T06:44:20.930Z,6.43
2018-09-16T06:46:50.400Z,7.33
2018-09-16T06:49:19.788Z,7.50
2018-09-16T06:51:49.332Z,7.90
2018-09-16T06:54:18.608Z,9.43
2018-09-16T06:56:47.991Z,9.20
2018-09-16T06:59:18.644Z,21.40
2018-09-16T07:01:49.212Z,12.97
2018-09-16T07:04:19.333Z,10.30
2018-09-16T07:06:48.790Z,8.83
2018-09-16T07:09:18.047Z,10.73
2018-09-16T07:11:47.221Z,15.00
2018-09-16T07:14:16.500Z,22.10
2018-09-16T07:16:45.468Z,40.47
2018-09-16T07:19:14.820Z,22.70
2018-09-16T07:21:44.775Z,16.37
2018-09-16T07:24:14.118Z,17.50
2018-09-16T07:26:43.268Z,27.60
2018-09-16T07:29:12.564Z,12.60
2018-09-16T07:31:42.067Z,17.23
2018-09-16T07:34:11.558Z,26.10
2018-09-16T07:36:40.585Z,18.57
2018-09-16T07:39:11.213Z,31.87
2018-09-16T07:41:40.525Z,42.37
2018-09-16T07:44:09.866Z,34.70
2018-09-16T07:46:39.500Z,17.10
2018-09-16T07:49:09.041Z,8.80
2018-09-16T07:51:41.672Z,8.80
2018-09-16T07:54:12.981Z,8.53
2018-09-16T07:56:42.330Z,8.17
2018-09-16T07:59:12.709Z,8.97
2018-09-16T08:01:41.991Z,6.70
2018-09-16T08:04:11.661Z,5.53
2018-09-16T08:06:41.000Z,6.20
2018-09-16T08:09:10.969Z,5.73
2018-09-16T08:11:40.545Z,3.30
2018-09-16T08:14:11.597Z,2.90
2018-09-16T08:16:43.446Z,4.80
2018-09-16T08:19:13.094Z,3.00
2018-09-16T08:21:42.314Z,3.27
2018-09-16T08:24:11.888Z,3.77
2018-09-16T08:26:41.530Z,4.92
2018-09-16T08:29:14.483Z,4.35
2018-09-16T08:31:44.773Z,2.90
2018-09-16T08:34:14.525Z,2.72
2018-09-16T08:36:43.961Z,4.25
2018-09-16T08:39:13.912Z,4.03
2018-09-16T08:41:42.931Z,3.52
2018-09-16T08:44:12.644Z,4.20
2018-09-16T08:46:42.041Z,4.72
2018-09-16T08:49:12.794Z,2.90
2018-09-16T08:51:42.735Z,2.45
2018-09-16T08:54:13.357Z,3.98
2018-09-16T08:56:43.185Z,2.47
2018-09-16T08:59:12.780Z,2.25
2018-09-16T09:01:42.411Z,2.35
2018-09-16T09:04:11.796Z,2.33
2018-09-16T09:06:41.224Z,1.80
2018-09-16T09:09:11.713Z,2.75
2018-09-16T09:11:41.821Z,2.40
2018-09-16T09:14:11.375Z,2.20
2018-09-16T09:16:40.625Z,4.15
2018-09-16T09:19:09.958Z,2.55
2018-09-16T09:21:38.636Z,5.15
2018-09-16T09:24:07.732Z,3.05
2018-09-16T09:26:37.276Z,9.23
2018-09-16T09:29:06.555Z,7.08
2018-09-16T09:31:36.534Z,4.78
2018-09-16T09:34:05.799Z,3.72
2018-09-16T09:36:35.166Z,3.25
2018-09-16T09:39:04.962Z,3.95
2018-09-16T09:41:36.252Z,2.65
2018-09-16T09:44:13.924Z,11.55
2018-09-16T09:46:43.312Z,15.15
2018-09-16T09:49:12.637Z,9.45
2018-09-16T09:51:49.948Z,2.62
2018-09-16T09:54:19.185Z,2.12
2018-09-16T09:56:49.427Z,3.08
2018-09-16T09:59:18.869Z,2.17
2018-09-16T10:01:50.448Z,1.87
2018-09-16T10:04:25.558Z,1.75
2018-09-16T10:06:58.926Z,1.70
2018-09-16T10:09:28.705Z,3.30
2018-09-16T10:11:59.645Z,2.40
2018-09-16T10:14:29.093Z,2.17
2018-09-16T10:16:59.959Z,1.82
2018-09-16T10:19:30.316Z,2.05
2018-09-16T10:21:59.997Z,2.25
2018-09-16T10:24:29.536Z,6.12
2018-09-16T10:27:00.255Z,2.25
2018-09-16T10:29:33.205Z,0.95
2018-09-16T10:32:10.604Z,2.62
2018-09-16T10:34:39.844Z,2.22
2018-09-16T10:37:12.034Z,1.62
2018-09-16T10:39:45.440Z,1.85
2018-09-16T10:42:16.602Z,2.45
2018-09-16T10:44:47.453Z,1.65
2018-09-16T10:47:17.196Z,2.55
2018-09-16T10:49:46.760Z,3.40
2018-09-16T10:52:16.687Z,2.12
2018-09-16T10:54:46.332Z,2.55
2018-09-16T10:57:16.818Z,6.78
2018-09-16T10:59:57.597Z,3.98
2018-09-16T11:02:32.437Z,2.25
2018-09-16T11:05:11.414Z,2.27
2018-09-16T11:07:43.266Z,2.40
2018-09-16T11:10:24.426Z,3.15
2018-09-16T11:12:53.754Z,2.00
2018-09-16T11:15:27.266Z,3.15
2018-09-16T11:17:59.226Z,2.12
2018-09-16T11:20:29.413Z,1.62
2018-09-16T11:23:01.939Z,1.92
2018-09-16T11:25:32.277Z,2.52
2018-09-16T11:28:01.501Z,1.77
2018-09-16T11:30:30.732Z,2.15
2018-09-16T11:33:00.126Z,2.10
2018-09-16T11:35:29.184Z,2.62
2018-09-16T11:37:58.622Z,1.65
2018-09-16T11:40:27.969Z,1.32
2018-09-16T11:42:57.509Z,3.05
2018-09-16T11:45:27.240Z,2.17
2018-09-16T11:47:56.396Z,1.22
2018-09-16T11:50:26.891Z,2.10
2018-09-16T11:52:56.157Z,1.85
2018-09-16T11:55:26.752Z,2.15
2018-09-16T11:58:01.753Z,1.17
2018-09-16T12:00:31.587Z,1.42
2018-09-16T12:03:01.933Z,2.95
2018-09-16T12:05:31.756Z,1.40
2018-09-16T12:08:01.184Z,1.62
2018-09-16T12:10:30.815Z,1.52
2018-09-16T12:12:59.936Z,2.15
2018-09-16T12:15:33.082Z,1.27
2018-09-16T12:18:09.309Z,1.40
2018-09-16T12:20:39.010Z,1.40
2018-09-16T12:23:09.425Z,1.40
2018-09-16T12:25:38.792Z,1.40
2018-09-16T12:28:11.232Z,1.37
2018-09-16T12:30:41.324Z,1.72
2018-09-16T12:33:10.588Z,1.37
2018-09-16T12:35:40.791Z,2.08
2018-09-16T12:38:09.988Z,1.60
2018-09-16T12:40:45.007Z,2.10
2018-09-16T12:43:14.513Z,3.00
2018-09-16T12:45:48.270Z,1.65
2018-09-16T12:48:17.416Z,1.60
2018-09-16T12:50:50.088Z,2.05
2018-09-16T12:53:19.989Z,1.20
2018-09-16T12:55:49.703Z,1.37
2018-09-16T12:58:20.002Z,1.95
2018-09-16T13:00:49.587Z,2.55
2018-09-16T13:03:19.389Z,1.95
2018-09-16T13:05:48.808Z,1.22
2018-09-16T13:08:19.675Z,2.22
2018-09-16T13:10:49.123Z,2.37
2018-09-16T13:13:18.369Z,1.57
2018-09-16T13:15:47.773Z,2.00
2018-09-16T13:18:16.957Z,3.27
2018-09-16T13:20:48.291Z,2.77
2018-09-16T13:23:17.822Z,3.52
2018-09-16T13:25:47.041Z,2.92
2018-09-16T13:28:17.095Z,1.55
2018-09-16T13:30:47.178Z,1.45
2018-09-16T13:33:18.021Z,2.22
2018-09-16T13:35:48.928Z,4.35
2018-09-16T13:38:18.860Z,1.92
2018-09-16T13:40:48.977Z,3.08
2018-09-16T13:43:19.241Z,4.25
2018-09-16T13:45:48.751Z,3.15
2018-09-16T13:48:18.010Z,3.50
2018-09-16T13:50:47.234Z,2.35
2018-09-16T13:53:16.830Z,1.75
2018-09-16T13:55:46.951Z,1.60
2018-09-16T13:58:16.122Z,1.80
2018-09-16T14:00:45.766Z,1.40
2018-09-16T14:03:15.638Z,2.55
2018-09-16T14:05:44.762Z,2.22
2018-09-16T14:08:14.255Z,2.08
2018-09-16T14:10:44.408Z,2.80
2018-09-16T14:13:13.647Z,2.35
2018-09-16T14:15:43.464Z,3.20
2018-09-16T14:18:13.447Z,1.90
2018-09-16T14:20:42.816Z,2.60
2018-09-16T14:23:12.533Z,2.27
2018-09-16T14:25:42.172Z,1.92
2018-09-16T14:28:11.510Z,1.42
2018-09-16T14:30:40.681Z,1.40
2018-09-16T14:33:10.345Z,2.75
2018-09-16T14:35:39.567Z,1.98
2018-09-16T14:38:09.090Z,1.32
2018-09-16T14:40:38.456Z,1.20
2018-09-16T14:43:08.311Z,2.47
2018-09-16T14:45:38.093Z,2.08
2018-09-16T14:48:08.021Z,1.62
2018-09-16T14:50:37.417Z,1.40
2018-09-16T14:53:08.135Z,2.27
2018-09-16T14:55:39.598Z,1.17
2018-09-16T14:58:08.992Z,1.50
2018-09-16T15:00:38.204Z,2.17
2018-09-16T15:03:08.240Z,1.30
2018-09-16T15:05:47.378Z,2.15
2018-09-16T15:08:21.069Z,3.12
2018-09-16T15:10:50.742Z,2.80
2018-09-16T15:13:20.710Z,1.42
2018-09-16T15:15:52.330Z,1.62
2018-09-16T15:18:21.467Z,1.42
2018-09-16T15:20:54.888Z,1.90
2018-09-16T15:23:32.540Z,3.63
2018-09-16T15:26:09.905Z,1.87
2018-09-16T15:28:42.892Z,1.98
2018-09-16T15:31:13.153Z,2.23
2018-09-16T15:33:42.493Z,3.55
2018-09-16T15:36:11.745Z,1.47
2018-09-16T15:38:42.212Z,1.87
2018-09-16T15:41:12.416Z,1.50
2018-09-16T15:43:41.584Z,1.90
2018-09-16T15:46:12.368Z,1.97
2018-09-16T15:48:41.619Z,1.40
2018-09-16T15:51:11.880Z,3.87
2018-09-16T15:53:41.605Z,2.10
2018-09-16T15:56:11.705Z,1.50
2018-09-16T15:58:42.578Z,3.30
2018-09-16T16:01:19.707Z,1.80
2018-09-16T16:03:49.406Z,3.93
2018-09-16T16:06:21.312Z,7.47
2018-09-16T16:08:53.122Z,4.87
2018-09-16T16:11:23.736Z,4.03
2018-09-16T16:14:02.225Z,5.43
2018-09-16T16:16:33.847Z,5.87
2018-09-16T16:19:03.828Z,10.10
2018-09-16T16:21:33.221Z,8.63
2018-09-16T16:24:02.564Z,9.77
2018-09-16T16:26:32.004Z,9.83
2018-09-16T16:29:03.135Z,10.67
2018-09-16T16:31:32.940Z,8.77
2018-09-16T16:34:02.364Z,7.50
2018-09-16T16:36:31.453Z,9.70
2018-09-16T16:39:00.831Z,11.20
2018-09-16T16:41:30.068Z,11.83
2018-09-16T16:44:00.792Z,12.20
2018-09-16T16:46:30.330Z,15.13
2018-09-16T16:49:00.086Z,15.67
2018-09-16T16:51:29.592Z,15.07
2018-09-16T16:53:59.205Z,10.87
2018-09-16T16:56:28.570Z,14.00
2018-09-16T16:58:58.351Z,12.90
2018-09-16T17:01:27.776Z,13.10
2018-09-16T17:03:56.944Z,9.70
2018-09-16T17:06:26.771Z,12.10
2018-09-16T17:08:56.528Z,13.17
2018-09-16T17:11:26.080Z,14.43
2018-09-16T17:13:56.072Z,14.03
2018-09-16T17:16:25.549Z,13.63
2018-09-16T17:18:55.476Z,13.03
2018-09-16T17:21:25.157Z,13.07
2018-09-16T17:23:54.617Z,13.77
2018-09-16T17:26:24.154Z,11.93
2018-09-16T17:28:53.564Z,12.17
2018-09-16T17:31:22.761Z,11.50
2018-09-16T17:33:52.497Z,13.33
2018-09-16T17:36:22.219Z,12.77
2018-09-16T17:38:51.655Z,11.27
2018-09-16T17:41:21.654Z,11.03
2018-09-16T17:43:50.806Z,13.70
2018-09-16T17:46:20.573Z,13.40
2018-09-16T17:48:50.498Z,10.63
2018-09-16T17:51:19.819Z,8.87
2018-09-16T17:53:49.114Z,10.60
2018-09-16T17:56:18.682Z,10.00
2018-09-16T17:58:49.518Z,8.17
2018-09-16T18:01:20.047Z,7.67
2018-09-16T18:03:50.850Z,7.57
2018-09-16T18:06:20.301Z,7.67
2018-09-16T18:08:49.650Z,9.13
2018-09-16T18:11:19.164Z,9.77
2018-09-16T18:13:48.291Z,13.23
2018-09-16T18:16:17.527Z,16.27
2018-09-16T18:18:46.835Z,19.07
2018-09-16T18:21:16.436Z,22.03
2018-09-16T18:23:46.966Z,18.03
2018-09-16T18:26:17.291Z,12.13
2018-09-16T18:28:48.762Z,10.33
2018-09-16T18:31:18.259Z,12.50
2018-09-16T18:33:48.216Z,12.77
2018-09-16T18:36:18.169Z,8.77
2018-09-16T18:38:47.430Z,9.53
2018-09-16T18:41:18.045Z,12.50
2018-09-16T18:43:48.094Z,9.47
2018-09-16T18:46:17.613Z,9.37
2018-09-16T18:48:47.206Z,14.47
2018-09-16T18:51:18.045Z,12.30
2018-09-16T18:53:47.643Z,14.60
2018-09-16T18:56:17.264Z,12.73
2018-09-16T18:58:47.175Z,14.63
2018-09-16T19:01:16.805Z,13.50
2018-09-16T19:03:46.177Z,16.37
2018-09-16T19:06:15.891Z,30.13
2018-09-16T19:08:45.517Z,23.83
2018-09-16T19:11:14.786Z,31.23
2018-09-16T19:13:44.442Z,61.03
2018-09-16T19:16:14.097Z,37.67
2018-09-16T19:18:43.748Z,41.63
2018-09-16T19:21:12.991Z,27.30
2018-09-16T19:23:42.181Z,23.83
2018-09-16T19:26:11.479Z,18.07
2018-09-16T19:28:41.104Z,14.33
2018-09-16T19:31:10.922Z,11.53
2018-09-16T19:33:40.076Z,11.33
2018-09-16T19:36:09.434Z,12.43
2018-09-16T19:38:39.010Z,12.07
2018-09-16T19:41:08.944Z,8.67
2018-09-16T19:43:38.125Z,11.97
2018-09-16T19:46:07.349Z,8.83
2018-09-16T19:48:36.536Z,8.03
2018-09-16T19:51:05.707Z,7.93
2018-09-16T19:53:35.062Z,8.80
2018-09-16T19:56:04.510Z,8.47
2018-09-16T19:58:33.691Z,7.20
2018-09-16T20:01:03.268Z,7.07
2018-09-16T20:03:32.463Z,7.13
2018-09-16T20:06:01.899Z,7.53
2018-09-16T20:08:31.074Z,12.83
2018-09-16T20:11:00.379Z,9.03
2018-09-16T20:13:29.707Z,9.03
2018-09-16T20:15:58.861Z,8.67
2018-09-16T20:18:28.203Z,15.00
2018-09-16T20:20:57.663Z,12.10
2018-09-16T20:23:27.545Z,11.10
2018-09-16T20:25:57.139Z,19.57
2018-09-16T20:28:26.402Z,13.87
2018-09-16T20:30:56.020Z,14.97
2018-09-16T20:33:25.179Z,14.23
2018-09-16T20:35:54.483Z,14.30
2018-09-16T20:38:23.684Z,16.20
2018-09-16T20:40:53.198Z,17.90
2018-09-16T20:43:22.610Z,19.40
2018-09-16T20:45:51.892Z,17.30
2018-09-16T20:48:21.860Z,19.97
2018-09-16T20:50:51.222Z,16.30
2018-09-16T20:53:20.698Z,17.97
2018-09-16T20:55:50.045Z,17.20
2018-09-16T20:58:19.560Z,17.70
2018-09-16T21:00:48.866Z,18.07
2018-09-16T21:03:18.307Z,17.10
2018-09-16T21:05:47.645Z,16.10
2018-09-16T21:08:16.947Z,18.77
2018-09-16T21:10:46.273Z,17.97
2018-09-16T21:13:15.430Z,17.30
2018-09-16T21:15:44.716Z,19.00
2018-09-16T21:18:13.996Z,12.80
2018-09-16T21:20:43.154Z,17.50
2018-09-16T21:23:12.327Z,17.77
2018-09-16T21:25:41.760Z,14.50
2018-09-16T21:28:11.090Z,17.97
2018-09-16T21:30:40.072Z,16.57
2018-09-16T21:33:09.212Z,12.57
2018-09-16T21:35:38.634Z,16.57
2018-09-16T21:38:08.323Z,14.13
2018-09-16T21:40:37.713Z,11.90
2018-09-16T21:43:06.879Z,12.73
2018-09-16T21:45:36.287Z,11.97
2018-09-16T21:48:05.777Z,13.13
2018-09-16T21:50:34.716Z,11.43
2018-09-16T21:53:04.069Z,14.90
2018-09-16T21:55:33.291Z,11.67
2018-09-16T21:58:02.820Z,15.13
2018-09-16T22:00:32.333Z,14.27
2018-09-16T22:03:01.571Z,19.73
2018-09-16T22:05:30.877Z,16.60
2018-09-16T22:08:00.127Z,15.93
2018-09-16T22:10:29.899Z,15.53
2018-09-16T22:12:59.280Z,14.30
2018-09-16T22:15:28.329Z,16.63
2018-09-16T22:17:57.476Z,14.43
2018-09-16T22:20:27.167Z,16.80
2018-09-16T22:22:56.455Z,15.60
2018-09-16T22:25:25.500Z,15.10
2018-09-16T22:27:54.722Z,15.70
2018-09-16T22:30:25.011Z,15.37
2018-09-16T22:32:54.437Z,15.63
2018-09-16T22:35:23.643Z,13.27
2018-09-16T22:37:53.231Z,13.63
2018-09-16T22:40:23.375Z,14.73
2018-09-16T22:42:53.404Z,13.53
2018-09-16T22:45:23.247Z,12.97
2018-09-16T22:47:52.522Z,13.37
2018-09-16T22:50:21.836Z,11.47
2018-09-16T22:52:50.946Z,12.47
2018-09-16T22:55:19.962Z,11.07
2018-09-16T22:57:49.384Z,13.23
2018-09-16T23:00:19.612Z,12.23
2018-09-16T23:02:48.678Z,10.57
2018-09-16T23:05:17.948Z,11.90
2018-09-16T23:07:47.820Z,43.00
2018-09-16T23:10:17.304Z,35.30
2018-09-16T23:12:46.460Z,26.40
2018-09-16T23:15:15.742Z,22.63
2018-09-16T23:17:44.890Z,27.57
2018-09-16T23:20:13.815Z,21.80
2018-09-16T23:22:42.931Z,16.53
2018-09-16T23:25:12.229Z,14.20
2018-09-16T23:27:41.359Z,17.13
2018-09-16T23:30:10.723Z,14.53
2018-09-16T23:32:40.080Z,12.83
2018-09-16T23:35:09.033Z,10.70
2018-09-16T23:37:38.414Z,11.13
2018-09-16T23:40:07.877Z,9.40
2018-09-16T23:42:37.073Z,10.33
2018-09-16T23:45:06.311Z,8.37
2018-09-16T23:47:35.751Z,8.17
2018-09-16T23:50:05.439Z,9.13
2018-09-16T23:52:34.619Z,12.20
2018-09-16T23:55:04.069Z,11.00
2018-09-16T23:57:33.376Z,9.63
